LYUZ

Uzice-ponikve

Uzice-ponikve,
TAF LYUZ 182300Z 1900/1924 05005KT 0400 FZFG VV002 TX00/1912Z TNM03/1906Z TEMPO 1900/1904 1500 -SN BR BKN003 OVC007 BECMG 1906/1908 3000 BR BKN005 OVC010
Issued Valid From Valid To
Jan-18 @ 23:00 UTC
(4 hours ago)
Jan-19 @ 00:00 UTC
(3 hours ago)
Jan-20 @ 00:00 UTC
(in 21 hours)
Jan-19 @ 00:00 to Jan-19 @ 06:00
TAF LYUZ 182300Z 1900/1924 05005KT 0400 FZFG VV002 TX00/1912Z TNM03/1906Z
Wind Visibility Clouds Conditions
50° at 5 knots 402 meters
  • Vertical visibility at 200' AGL
  • Freezing
  • Fog
Temporary Jan-19 @ 00:00 to Jan-19 @ 04:00
TEMPO 1900/1904 1500 -SN BR BKN003 OVC007
Visibility Clouds Conditions
1,497 meters
  • Broken at 300' AGL
  • Overcast at 700' AGL
  • Light Snow
  • Mist
Becoming Jan-19 @ 06:00 to Jan-20 @ 00:00
BECMG 1906/1908 3000 BR BKN005 OVC010
Wind Visibility Clouds Conditions
50° at 5 knots 2,993 meters
  • Broken at 500' AGL
  • Overcast at 1,000' AGL
  • Mist
TAF LYUZ 182300Z 1900/1924 05005KT 0400 FZFG VV002 TX00/1912Z TNM03/1906Z TEMPO 1900/1904 1500 -SN BR BKN003 OVC007 BECMG 1906/1908 3000 BR BKN005 OVC010
Issued Jan-18 @ 23:00 UTC
(4 hours ago)
Valid From Jan-19 @ 00:00 UTC
(3 hours ago)
Valid To Jan-20 @ 00:00 UTC
(in 21 hours)
Jan-19 @ 00:00 - Jan-19 @ 06:00
Wind Visibility
50° at 5 knots 402 meters
Clouds
  • Vertical visibility at 200' AGL
Conditions
  • Freezing
  • Fog
Temporary Jan-19 @ 00:00 - Jan-19 @ 04:00
Clouds
  • Broken at 300' AGL
  • Overcast at 700' AGL
Conditions
  • Light Snow
  • Mist
Becoming Jan-19 @ 06:00 - Jan-20 @ 00:00
Wind Visibility
50° at 5 knots 2,993 meters
Clouds
  • Broken at 500' AGL
  • Overcast at 1,000' AGL
Conditions
  • Mist